Time;durP1;ratioP1;P1;durP2;ratioP2;P2;SDS_P1;SDS_P2;PMS_P1;PMS_P2;Temp;Humidity;BMP_temperature;BMP_pressure;BME280_temperature;BME280_humidity;BME280_pressure;Samples;Min_cycle;Max_cycle;Signal;HPM_P1;HPM_P2
2021/11/15 00:00:45;;;;;;;18.40;6.50;;;;;;;;;;5044993;28;20129;-59
2021/11/15 00:03:13;;;;;;;16.02;6.78;;;;;;;;;;5061006;28;20037;-60
2021/11/15 00:05:40;;;;;;;16.73;6.82;;;;;;;;;;5056233;28;20130;-57
2021/11/15 00:08:06;;;;;;;15.68;5.90;;;;;;;;;;5059159;28;20056;-59
2021/11/15 00:10:34;;;;;;;14.45;5.53;;;;;;;;;;5041382;28;20065;-58
2021/11/15 00:13:01;;;;;;;18.35;6.43;;;;;;;;;;5053024;28;20037;-58
2021/11/15 00:15:29;;;;;;;16.85;7.25;;;;;;;;;;5043235;28;20061;-59
2021/11/15 00:17:56;;;;;;;15.27;6.27;;;;;;;;;;5044677;28;20057;-56
2021/11/15 00:20:23;;;;;;;16.27;6.80;;;;;;;;;;5040767;28;20364;-58
2021/11/15 00:22:49;;;;;;;16.75;7.30;;;;;;;;;;5041405;28;20099;-59
2021/11/15 00:25:16;;;;;;;17.38;7.80;;;;;;;;;;5059674;28;20037;-59
2021/11/15 00:27:44;;;;;;;13.70;6.15;;;;;;;;;;5059550;28;20045;-59
2021/11/15 00:30:11;;;;;;;15.88;6.57;;;;;;;;;;5059650;28;20072;-60
2021/11/15 00:32:38;;;;;;;16.17;6.72;;;;;;;;;;5060365;28;20048;-62
2021/11/15 00:35:06;;;;;;;17.00;6.97;;;;;;;;;;5045242;28;20068;-59
2021/11/15 00:37:32;;;;;;;18.83;7.72;;;;;;;;;;5061402;28;20045;-59
2021/11/15 00:39:59;;;;;;;18.25;7.90;;;;;;;;;;5056557;28;20136;-57
2021/11/15 00:42:26;;;;;;;16.65;6.93;;;;;;;;;;5061019;28;20037;-60
2021/11/15 00:44:54;;;;;;;21.05;6.82;;;;;;;;;;5057659;28;20065;-58
2021/11/15 00:47:21;;;;;;;16.43;7.40;;;;;;;;;;5059278;28;20079;-59
2021/11/15 00:49:51;;;;;;;14.23;6.38;;;;;;;;;;5053598;28;20052;-58
2021/11/15 00:52:17;;;;;;;19.73;7.75;;;;;;;;;;5038407;28;20072;-59
2021/11/15 00:54:45;;;;;;;15.90;7.50;;;;;;;;;;5038100;28;20048;-59
2021/11/15 00:57:11;;;;;;;15.40;6.72;;;;;;;;;;5044313;28;20030;-59
2021/11/15 00:59:38;;;;;;;23.10;8.13;;;;;;;;;;5038977;28;20042;-59
2021/11/15 01:02:06;;;;;;;18.40;7.43;;;;;;;;;;5051694;28;20040;-59
2021/11/15 01:04:33;;;;;;;17.45;7.47;;;;;;;;;;5058499;28;20041;-57
2021/11/15 01:06:59;;;;;;;17.35;6.85;;;;;;;;;;5042204;28;20096;-59
2021/11/15 01:09:26;;;;;;;19.27;7.88;;;;;;;;;;5038552;28;20053;-59
2021/11/15 01:11:53;;;;;;;17.50;7.50;;;;;;;;;;5039989;28;20114;-59
2021/11/15 01:14:20;;;;;;;20.00;7.57;;;;;;;;;;5058770;28;20057;-58
2021/11/15 01:16:46;;;;;;;18.83;6.93;;;;;;;;;;5046334;28;20045;-60
2021/11/15 01:19:15;;;;;;;20.33;6.43;;;;;;;;;;5039897;28;20039;-60
2021/11/15 01:21:44;;;;;;;16.55;7.35;;;;;;;;;;5044762;28;20118;-58
2021/11/15 01:24:11;;;;;;;19.13;6.63;;;;;;;;;;5039483;28;20048;-58
2021/11/15 01:26:38;;;;;;;16.38;6.03;;;;;;;;;;5038801;28;20045;-58
2021/11/15 01:29:04;;;;;;;17.27;6.38;;;;;;;;;;5042331;28;20033;-56
2021/11/15 01:31:31;;;;;;;14.48;6.18;;;;;;;;;;5039540;28;20041;-59
2021/11/15 01:34:01;;;;;;;16.73;6.97;;;;;;;;;;5043051;28;20033;-58
2021/11/15 01:36:29;;;;;;;18.50;7.90;;;;;;;;;;5039169;28;20037;-58
2021/11/15 01:38:55;;;;;;;19.43;7.27;;;;;;;;;;5044201;28;20156;-58
2021/11/15 01:41:22;;;;;;;14.65;5.93;;;;;;;;;;5044411;28;20045;-59
2021/11/15 01:43:49;;;;;;;15.73;6.18;;;;;;;;;;5040292;28;20033;-59
2021/11/15 01:46:15;;;;;;;16.40;6.30;;;;;;;;;;5059815;28;20041;-59
2021/11/15 01:48:42;;;;;;;20.65;8.77;;;;;;;;;;5050426;28;20049;-59
2021/11/15 01:51:10;;;;;;;20.10;6.90;;;;;;;;;;5069073;28;20029;-58
2021/11/15 01:53:38;;;;;;;18.48;6.75;;;;;;;;;;5045965;28;20049;-58
2021/11/15 01:56:05;;;;;;;16.17;6.70;;;;;;;;;;5043749;28;20041;-59
2021/11/15 01:58:31;;;;;;;15.25;6.82;;;;;;;;;;5049371;28;20364;-59
2021/11/15 02:00:59;;;;;;;15.25;7.18;;;;;;;;;;5063719;28;20119;-59
2021/11/15 02:03:26;;;;;;;17.52;6.25;;;;;;;;;;5040258;28;20037;-59
2021/11/15 02:05:53;;;;;;;19.88;7.95;;;;;;;;;;5042993;28;20057;-59
2021/11/15 02:08:20;;;;;;;15.88;7.50;;;;;;;;;;5045108;28;20040;-59
2021/11/15 02:10:48;;;;;;;21.58;7.63;;;;;;;;;;5062177;28;20052;-58
2021/11/15 02:13:15;;;;;;;14.65;6.18;;;;;;;;;;5056389;28;20037;-59
2021/11/15 02:15:41;;;;;;;19.45;6.55;;;;;;;;;;5063188;28;20072;-58
2021/11/15 02:18:08;;;;;;;16.52;7.30;;;;;;;;;;5058064;28;20048;-59
2021/11/15 02:20:45;;;;;;;16.95;6.53;;;;;;;;;;5059208;28;20071;-59
2021/11/15 02:23:11;;;;;;;16.90;6.82;;;;;;;;;;5039545;28;20047;-59
2021/11/15 02:25:38;;;;;;;15.82;6.25;;;;;;;;;;5058920;28;20141;-59
2021/11/15 02:28:05;;;;;;;15.68;6.75;;;;;;;;;;5042674;28;20090;-59
2021/11/15 02:30:34;;;;;;;17.10;7.18;;;;;;;;;;5038211;28;20049;-59
2021/11/15 02:33:01;;;;;;;21.05;7.55;;;;;;;;;;5041776;28;20034;-58
2021/11/15 02:35:28;;;;;;;18.60;7.70;;;;;;;;;;5039070;28;20059;-61
2021/11/15 02:37:56;;;;;;;20.23;7.65;;;;;;;;;;5042628;28;20045;-57
2021/11/15 02:40:25;;;;;;;15.30;7.85;;;;;;;;;;5039713;28;20045;-58
2021/11/15 02:42:51;;;;;;;17.77;7.70;;;;;;;;;;5040644;28;20102;-58
2021/11/15 02:45:19;;;;;;;19.73;8.23;;;;;;;;;;5045870;28;20115;-58
2021/11/15 02:47:46;;;;;;;18.77;7.30;;;;;;;;;;5041865;28;20133;-60
2021/11/15 02:50:15;;;;;;;17.55;6.90;;;;;;;;;;5047175;28;20048;-58
2021/11/15 02:52:42;;;;;;;19.00;7.88;;;;;;;;;;5061311;28;20032;-59
2021/11/15 02:55:10;;;;;;;15.82;7.00;;;;;;;;;;5052218;28;20086;-56
2021/11/15 02:57:37;;;;;;;15.25;6.45;;;;;;;;;;5042270;28;20033;-60
2021/11/15 03:00:06;;;;;;;15.95;6.82;;;;;;;;;;5038596;28;20053;-58
2021/11/15 03:02:33;;;;;;;19.55;7.43;;;;;;;;;;5060751;28;20033;-59
2021/11/15 03:04:59;;;;;;;21.20;8.20;;;;;;;;;;5057514;28;20051;-59
2021/11/15 03:07:26;;;;;;;18.10;7.32;;;;;;;;;;5039787;28;20147;-60
2021/11/15 03:09:54;;;;;;;21.48;7.30;;;;;;;;;;5042573;28;20092;-58
2021/11/15 03:12:31;;;;;;;15.47;6.70;;;;;;;;;;5047470;28;20028;-58
2021/11/15 03:14:57;;;;;;;19.45;7.75;;;;;;;;;;5058889;28;20293;-58
2021/11/15 03:17:23;;;;;;;19.42;7.45;;;;;;;;;;5039050;28;20030;-54
2021/11/15 03:19:50;;;;;;;20.00;8.20;;;;;;;;;;5041150;28;20122;-57
2021/11/15 03:22:17;;;;;;;13.23;5.88;;;;;;;;;;5038511;28;20087;-58
2021/11/15 03:24:43;;;;;;;16.58;6.05;;;;;;;;;;5062591;28;20033;-58
2021/11/15 03:27:10;;;;;;;19.00;7.38;;;;;;;;;;5041314;28;20084;-59
2021/11/15 03:29:38;;;;;;;20.38;8.10;;;;;;;;;;5064849;28;20044;-59
2021/11/15 03:32:05;;;;;;;19.30;7.68;;;;;;;;;;5062055;28;20051;-60
2021/11/15 03:34:31;;;;;;;20.25;8.25;;;;;;;;;;5059990;28;20041;-58
2021/11/15 03:36:57;;;;;;;20.20;8.77;;;;;;;;;;5057552;28;20150;-57
2021/11/15 03:39:24;;;;;;;19.50;7.97;;;;;;;;;;5044942;28;20048;-58
2021/11/15 03:41:51;;;;;;;18.33;8.15;;;;;;;;;;5058477;28;20036;-57
2021/11/15 03:44:20;;;;;;;22.92;7.40;;;;;;;;;;5046264;28;20133;-58
2021/11/15 03:46:48;;;;;;;21.08;8.20;;;;;;;;;;5041768;28;20045;-58
2021/11/15 03:49:15;;;;;;;24.60;8.43;;;;;;;;;;5043241;28;20117;-59
2021/11/15 03:51:44;;;;;;;21.30;8.33;;;;;;;;;;5043067;28;20298;-58
2021/11/15 03:54:10;;;;;;;22.27;8.77;;;;;;;;;;5060321;28;20047;-58
2021/11/15 03:56:37;;;;;;;24.02;9.32;;;;;;;;;;5045116;28;20044;-57
2021/11/15 03:59:09;;;;;;;23.27;9.13;;;;;;;;;;5041142;28;20047;-56
2021/11/15 04:01:38;;;;;;;23.13;9.50;;;;;;;;;;5055604;28;20048;-59
2021/11/15 04:04:08;;;;;;;21.23;8.32;;;;;;;;;;5044671;28;20037;-58
2021/11/15 04:06:39;;;;;;;21.73;8.55;;;;;;;;;;5044348;28;20025;-57
2021/11/15 04:09:07;;;;;;;20.42;8.63;;;;;;;;;;5040454;28;20055;-59
2021/11/15 04:11:36;;;;;;;20.38;9.43;;;;;;;;;;5046658;28;20170;-57
2021/11/15 04:14:04;;;;;;;16.88;8.18;;;;;;;;;;5047491;28;20134;-55
2021/11/15 04:16:31;;;;;;;;;;;;;;;;;;5044873;28;20052;-58
2021/11/15 04:18:58;;;;;;;21.10;7.68;;;;;;;;;;5050178;28;19935;-59
2021/11/15 04:21:27;;;;;;;22.50;9.48;;;;;;;;;;5064583;28;20088;-59
2021/11/15 04:23:53;;;;;;;23.80;9.45;;;;;;;;;;5051329;28;20053;-57
2021/11/15 04:26:20;;;;;;;26.17;10.32;;;;;;;;;;5044966;28;20040;-59
2021/11/15 04:28:46;;;;;;;22.20;9.10;;;;;;;;;;5065471;28;20055;-59
2021/11/15 04:31:17;;;;;;;20.52;8.93;;;;;;;;;;5052528;28;20036;-58
2021/11/15 04:33:43;;;;;;;24.90;9.68;;;;;;;;;;5060334;28;20036;-55
2021/11/15 04:36:10;;;;;;;24.08;9.82;;;;;;;;;;5063609;28;20041;-58
2021/11/15 04:38:38;;;;;;;20.52;9.50;;;;;;;;;;5060033;28;20040;-56
2021/11/15 04:41:04;;;;;;;23.77;9.23;;;;;;;;;;5044436;28;20097;-60
2021/11/15 04:43:31;;;;;;;20.95;9.50;;;;;;;;;;5043271;28;20064;-59
2021/11/15 04:45:57;;;;;;;20.35;8.27;;;;;;;;;;5059614;28;20040;-60
2021/11/15 04:48:25;;;;;;;22.73;9.60;;;;;;;;;;5064334;28;20032;-58
2021/11/15 04:50:53;;;;;;;24.00;9.83;;;;;;;;;;5060118;28;20040;-60
2021/11/15 04:53:19;;;;;;;25.23;10.10;;;;;;;;;;5063897;28;20047;-59
2021/11/15 04:55:47;;;;;;;24.67;10.30;;;;;;;;;;5055754;28;20040;-59
2021/11/15 04:58:14;;;;;;;24.33;10.03;;;;;;;;;;5045962;28;20040;-59
2021/11/15 05:00:51;;;;;;;23.60;9.40;;;;;;;;;;5043181;28;20309;-59
2021/11/15 05:03:17;;;;;;;23.77;9.57;;;;;;;;;;5045104;28;20041;-58
2021/11/15 05:05:44;;;;;;;24.75;9.63;;;;;;;;;;5041682;28;20060;-59
2021/11/15 05:08:11;;;;;;;22.13;9.50;;;;;;;;;;5048142;28;20044;-58
2021/11/15 05:10:39;;;;;;;26.13;10.77;;;;;;;;;;5044679;28;20048;-59
2021/11/15 05:13:07;;;;;;;24.05;10.25;;;;;;;;;;5062466;28;20059;-58
2021/11/15 05:15:34;;;;;;;24.02;10.80;;;;;;;;;;5061192;28;20049;-53
2021/11/15 05:18:00;;;;;;;26.17;10.70;;;;;;;;;;5063746;28;20130;-59
2021/11/15 05:20:27;;;;;;;30.27;10.68;;;;;;;;;;5061175;28;20046;-55
2021/11/15 05:22:54;;;;;;;27.88;11.35;;;;;;;;;;5063026;28;20060;-57
2021/11/15 05:25:21;;;;;;;26.65;9.43;;;;;;;;;;5059660;28;20055;-59
2021/11/15 05:27:47;;;;;;;27.92;10.88;;;;;;;;;;5046138;28;20051;-59
2021/11/15 05:30:17;;;;;;;26.40;10.07;;;;;;;;;;5023763;28;20049;-58
2021/11/15 05:32:45;;;;;;;26.02;11.13;;;;;;;;;;5026330;28;20285;-59
2021/11/15 05:35:11;;;;;;;25.15;10.90;;;;;;;;;;5065328;28;20098;-59
2021/11/15 05:37:40;;;;;;;25.70;9.77;;;;;;;;;;5078418;28;20040;-57
2021/11/15 05:40:07;;;;;;;;;;;;;;;;;;5071772;28;20036;-53
2021/11/15 05:42:33;;;;;;;22.70;9.15;;;;;;;;;;5020507;28;19921;-57
2021/11/15 05:45:01;;;;;;;25.85;10.55;;;;;;;;;;5044371;28;20119;-55
2021/11/15 05:47:28;;;;;;;25.08;9.27;;;;;;;;;;5031235;28;20049;-57
2021/11/15 05:49:55;;;;;;;25.17;10.77;;;;;;;;;;5042990;28;20053;-53
2021/11/15 05:52:23;;;;;;;21.65;8.95;;;;;;;;;;5028548;28;20041;-56
2021/11/15 05:54:50;;;;;;;21.50;8.82;;;;;;;;;;5026677;28;20091;-58
2021/11/15 05:57:16;;;;;;;23.67;9.90;;;;;;;;;;5024713;28;20122;-57
2021/11/15 05:59:44;;;;;;;22.92;9.57;;;;;;;;;;5027826;28;20042;-57
2021/11/15 06:02:10;;;;;;;25.67;10.25;;;;;;;;;;5040146;28;20048;-54
2021/11/15 06:04:39;;;;;;;25.50;9.07;;;;;;;;;;5045706;28;20052;-56
2021/11/15 06:07:05;;;;;;;;;;;;;;;;;;5052829;28;20040;-56
2021/11/15 06:09:32;;;;;;;21.90;8.95;;;;;;;;;;5063429;28;19928;-56
2021/11/15 06:11:58;;;;;;;24.55;9.25;;;;;;;;;;5063206;28;20051;-57
2021/11/15 06:14:25;;;;;;;21.77;9.25;;;;;;;;;;5060553;28;20052;-57
2021/11/15 06:16:51;;;;;;;23.92;8.52;;;;;;;;;;5079672;28;20121;-57
2021/11/15 06:19:18;;;;;;;20.83;9.05;;;;;;;;;;5059605;28;20066;-57
2021/11/15 06:21:46;;;;;;;20.92;9.18;;;;;;;;;;5083558;28;20044;-54
2021/11/15 06:24:13;;;;;;;25.58;9.25;;;;;;;;;;5059029;28;20154;-56
2021/11/15 06:26:39;;;;;;;25.17;9.32;;;;;;;;;;5064486;28;20086;-57
2021/11/15 06:29:05;;;;;;;24.48;9.65;;;;;;;;;;5062044;28;20051;-57
2021/11/15 06:31:32;;;;;;;28.42;11.18;;;;;;;;;;5066074;28;20189;-58
2021/11/15 06:33:59;;;;;;;28.23;10.93;;;;;;;;;;5050788;28;20130;-56
2021/11/15 06:36:25;;;;;;;24.75;9.77;;;;;;;;;;5049071;28;20032;-57
2021/11/15 06:38:55;;;;;;;24.90;9.82;;;;;;;;;;5038997;28;20040;-57
2021/11/15 06:41:25;;;;;;;23.15;9.65;;;;;;;;;;5059545;28;20036;-57
2021/11/15 06:43:52;;;;;;;23.83;10.25;;;;;;;;;;5042919;28;20114;-57
2021/11/15 06:46:19;;;;;;;26.35;9.93;;;;;;;;;;5072911;28;20056;-57
2021/11/15 06:48:45;;;;;;;23.45;10.48;;;;;;;;;;5059962;28;20171;-56
2021/11/15 06:51:13;;;;;;;18.50;7.95;;;;;;;;;;5043536;28;20033;-56
2021/11/15 06:53:40;;;;;;;20.35;8.77;;;;;;;;;;5045224;28;20033;-57
2021/11/15 06:56:08;;;;;;;25.40;9.32;;;;;;;;;;5060605;28;20122;-55
2021/11/15 06:58:35;;;;;;;24.30;9.57;;;;;;;;;;5034292;28;20056;-56
2021/11/15 07:01:04;;;;;;;26.88;9.90;;;;;;;;;;5038636;28;20044;-57
2021/11/15 07:03:30;;;;;;;21.30;8.85;;;;;;;;;;5058269;28;20067;-55
2021/11/15 07:05:57;;;;;;;19.60;8.88;;;;;;;;;;5034442;28;20045;-57
2021/11/15 07:08:24;;;;;;;24.95;9.60;;;;;;;;;;5025090;28;20126;-57
2021/11/15 07:10:52;;;;;;;24.15;9.68;;;;;;;;;;5033473;28;20041;-57
2021/11/15 07:13:20;;;;;;;24.17;9.63;;;;;;;;;;5040982;28;20159;-55
2021/11/15 07:15:48;;;;;;;22.60;8.63;;;;;;;;;;5056823;28;20033;-57
2021/11/15 07:18:15;;;;;;;21.33;8.70;;;;;;;;;;5058712;28;20045;-56
2021/11/15 07:20:42;;;;;;;21.75;9.35;;;;;;;;;;5046115;28;20037;-58
2021/11/15 07:23:08;;;;;;;25.40;9.23;;;;;;;;;;5061919;28;20052;-56
2021/11/15 07:25:35;;;;;;;23.50;8.63;;;;;;;;;;5074307;28;20114;-56
2021/11/15 07:28:02;;;;;;;22.40;8.73;;;;;;;;;;5077606;28;20099;-55
2021/11/15 07:30:30;;;;;;;23.20;8.45;;;;;;;;;;5074518;28;20259;-57
2021/11/15 07:32:57;;;;;;;20.02;8.05;;;;;;;;;;5058355;28;20041;-58
2021/11/15 07:35:23;;;;;;;22.63;8.52;;;;;;;;;;5039574;28;20037;-55
2021/11/15 07:37:50;;;;;;;25.00;9.68;;;;;;;;;;5041188;28;20040;-57
2021/11/15 07:40:18;;;;;;;22.23;8.20;;;;;;;;;;5023973;28;20048;-58
2021/11/15 07:42:45;;;;;;;24.85;8.50;;;;;;;;;;5052217;28;20051;-56
2021/11/15 07:45:12;;;;;;;26.67;9.07;;;;;;;;;;5063110;28;20048;-57
2021/11/15 07:47:41;;;;;;;22.35;8.38;;;;;;;;;;5074568;28;20041;-58
2021/11/15 07:50:10;;;;;;;19.38;7.63;;;;;;;;;;5078624;28;20041;-57
2021/11/15 07:52:37;;;;;;;23.92;8.75;;;;;;;;;;5060413;28;20040;-57
2021/11/15 07:55:04;;;;;;;18.40;6.72;;;;;;;;;;5065538;28;20047;-55
2021/11/15 07:57:30;;;;;;;22.35;7.88;;;;;;;;;;5042895;28;20044;-56
2021/11/15 07:59:57;;;;;;;16.05;6.63;;;;;;;;;;5027356;28;20037;-59
2021/11/15 08:02:24;;;;;;;21.00;7.15;;;;;;;;;;5065689;28;20036;-57
2021/11/15 08:04:52;;;;;;;20.20;7.18;;;;;;;;;;5040662;28;20057;-57
2021/11/15 08:07:18;;;;;;;18.60;7.55;;;;;;;;;;5042493;28;20076;-59
2021/11/15 08:09:51;;;;;;;19.95;7.30;;;;;;;;;;5059472;28;20040;-56
2021/11/15 08:12:20;;;;;;;20.40;7.95;;;;;;;;;;5056044;28;20044;-56
2021/11/15 08:14:47;;;;;;;24.20;9.30;;;;;;;;;;5061397;28;20044;-56
2021/11/15 08:17:13;;;;;;;21.60;7.50;;;;;;;;;;5041061;28;20041;-58
2021/11/15 08:19:40;;;;;;;20.15;8.45;;;;;;;;;;5027104;28;20045;-56
2021/11/15 08:22:08;;;;;;;15.70;7.03;;;;;;;;;;5059681;28;20151;-57
2021/11/15 08:25:08;;;;;;;19.23;7.90;;;;;;;;;;5062645;28;20040;-56
2021/11/15 08:27:35;;;;;;;17.90;7.47;;;;;;;;;;5051939;28;20177;-56
2021/11/15 08:30:03;;;;;;;25.20;8.43;;;;;;;;;;5043588;28;20040;-57
2021/11/15 08:32:30;;;;;;;;;;;;;;;;;;5053015;28;20065;-57
2021/11/15 08:34:59;;;;;;;19.80;7.53;;;;;;;;;;5030558;28;19952;-58
2021/11/15 08:37:27;;;;;;;18.85;7.82;;;;;;;;;;5023296;28;20111;-55
2021/11/15 08:39:54;;;;;;;25.08;7.95;;;;;;;;;;5038316;28;20029;-58
2021/11/15 08:42:20;;;;;;;22.45;8.23;;;;;;;;;;5047030;28;20095;-56
2021/11/15 08:44:54;;;;;;;21.10;7.90;;;;;;;;;;5050662;28;20048;-56
2021/11/15 08:47:21;;;;;;;23.85;8.45;;;;;;;;;;5042895;28;20160;-56
2021/11/15 08:49:49;;;;;;;26.92;8.90;;;;;;;;;;5051364;28;20045;-56
2021/11/15 08:52:15;;;;;;;22.20;9.63;;;;;;;;;;5063421;28;20055;-55
2021/11/15 08:54:47;;;;;;;25.85;8.40;;;;;;;;;;5051138;28;20038;-56
2021/11/15 08:57:14;;;;;;;23.90;7.82;;;;;;;;;;5044195;28;20049;-56
2021/11/15 08:59:41;;;;;;;21.60;8.43;;;;;;;;;;5040435;28;20033;-56
2021/11/15 09:02:08;;;;;;;22.90;9.35;;;;;;;;;;5043119;28;20041;-57
2021/11/15 09:04:36;;;;;;;23.95;9.63;;;;;;;;;;5046776;28;20029;-57
2021/11/15 09:07:03;;;;;;;23.85;8.18;;;;;;;;;;5051208;28;20033;-59
2021/11/15 09:09:29;;;;;;;21.00;8.30;;;;;;;;;;5038218;28;20041;-57
2021/11/15 09:11:58;;;;;;;21.83;9.13;;;;;;;;;;5049181;28;20198;-60
2021/11/15 09:14:25;;;;;;;23.73;9.32;;;;;;;;;;5041328;28;20045;-59
2021/11/15 09:16:52;;;;;;;25.48;9.68;;;;;;;;;;5043412;28;20091;-58
2021/11/15 09:19:20;;;;;;;22.55;8.90;;;;;;;;;;5043230;28;20060;-57
2021/11/15 09:21:47;;;;;;;21.42;8.20;;;;;;;;;;5042825;28;20041;-58
2021/11/15 09:24:15;;;;;;;21.25;8.55;;;;;;;;;;5022743;28;20102;-57
2021/11/15 09:26:41;;;;;;;23.08;9.15;;;;;;;;;;5020872;28;20037;-58
2021/11/15 09:29:11;;;;;;;21.05;8.27;;;;;;;;;;5025545;28;20030;-55
2021/11/15 09:31:39;;;;;;;25.88;8.18;;;;;;;;;;5021030;28;20045;-58
2021/11/15 09:34:06;;;;;;;18.70;6.97;;;;;;;;;;5036626;28;20172;-55
2021/11/15 09:36:32;;;;;;;22.13;8.73;;;;;;;;;;5039146;28;20072;-54
2021/11/15 09:39:00;;;;;;;24.95;8.48;;;;;;;;;;5043197;28;20106;-55
2021/11/15 09:41:27;;;;;;;20.17;7.90;;;;;;;;;;5039508;28;20037;-57
2021/11/15 09:43:53;;;;;;;21.08;7.47;;;;;;;;;;5042002;28;20049;-58
2021/11/15 09:46:22;;;;;;;20.33;8.40;;;;;;;;;;5039550;28;20044;-57
2021/11/15 09:48:49;;;;;;;;;;;;;;;;;;5041598;28;20037;-58
2021/11/15 09:51:22;;;;;;;19.77;7.45;;;;;;;;;;5037155;28;19924;-57
2021/11/15 09:53:48;;;;;;;20.45;7.07;;;;;;;;;;5021711;28;20042;-58
2021/11/15 09:56:15;;;;;;;21.48;7.82;;;;;;;;;;5017838;28;20053;-57
2021/11/15 09:58:42;;;;;;;25.10;7.95;;;;;;;;;;5009371;28;20048;-57
2021/11/15 10:01:10;;;;;;;27.95;8.63;;;;;;;;;;5017521;28;20038;-57
2021/11/15 10:03:38;;;;;;;21.13;7.55;;;;;;;;;;5003217;28;20102;-57
2021/11/15 10:06:04;;;;;;;18.27;6.97;;;;;;;;;;5003003;28;20069;-57
2021/11/15 10:08:42;;;;;;;16.90;6.25;;;;;;;;;;5000361;28;20111;-54
2021/11/15 10:11:09;;;;;;;15.85;5.60;;;;;;;;;;5017881;28;20049;-57
2021/11/15 10:13:35;;;;;;;21.30;6.38;;;;;;;;;;5001000;28;20050;-57
2021/11/15 10:16:04;;;;;;;16.58;5.50;;;;;;;;;;5002807;28;20050;-56
2021/11/15 10:18:46;;;;;;;15.15;5.40;;;;;;;;;;5000469;28;20054;-56
2021/11/15 10:21:17;;;;;;;15.35;5.40;;;;;;;;;;5000524;28;20104;-57
2021/11/15 10:23:45;;;;;;;14.02;5.50;;;;;;;;;;5020161;28;20053;-57
2021/11/15 10:26:15;;;;;;;14.73;5.05;;;;;;;;;;5043431;28;20115;-57
2021/11/15 10:28:41;;;;;;;15.25;5.32;;;;;;;;;;5024888;28;20041;-56
2021/11/15 10:31:23;;;;;;;15.27;4.63;;;;;;;;;;5021364;28;20042;-55
2021/11/15 10:33:49;;;;;;;13.23;4.90;;;;;;;;;;5018160;28;20038;-57
2021/11/15 10:36:17;;;;;;;14.82;4.55;;;;;;;;;;5023023;28;20033;-56
2021/11/15 10:38:46;;;;;;;8.98;3.63;;;;;;;;;;5018410;28;20069;-53
2021/11/15 10:41:14;;;;;;;12.18;4.45;;;;;;;;;;5022724;28;20038;-55
2021/11/15 10:43:40;;;;;;;10.73;4.07;;;;;;;;;;5019672;28;20046;-57
2021/11/15 10:46:07;;;;;;;12.82;4.47;;;;;;;;;;5039171;28;20082;-55
2021/11/15 10:48:45;;;;;;;14.10;4.32;;;;;;;;;;5036032;28;20069;-57
2021/11/15 10:51:14;;;;;;;9.30;3.38;;;;;;;;;;5021972;28;20107;-57
2021/11/15 10:53:54;;;;;;;;;;;;;;;;;;5014860;28;20042;-57
2021/11/15 10:56:29;;;;;;;12.02;4.00;;;;;;;;;;5020118;28;19972;-57
2021/11/15 10:58:55;;;;;;;10.20;3.60;;;;;;;;;;5017048;28;20034;-55
2021/11/15 11:01:29;;;;;;;11.30;4.28;;;;;;;;;;5022418;28;20061;-57
2021/11/15 11:04:06;;;;;;;14.20;4.90;;;;;;;;;;5033436;28;20052;-57
2021/11/15 11:06:32;;;;;;;12.93;4.20;;;;;;;;;;5021520;28;20030;-57
2021/11/15 11:08:59;;;;;;;17.23;5.63;;;;;;;;;;5018872;28;20057;-57
2021/11/15 11:11:28;;;;;;;17.83;5.95;;;;;;;;;;5019542;28;20049;-56
2021/11/15 11:13:57;;;;;;;13.95;4.55;;;;;;;;;;5017576;28;20082;-56
2021/11/15 11:16:39;;;;;;;12.63;4.72;;;;;;;;;;5023371;28;20354;-57
2021/11/15 11:19:16;;;;;;;19.95;6.38;;;;;;;;;;5019795;28;20048;-56
2021/11/15 11:24:38;;;;;;;14.20;5.38;;;;;;;;;;5029837;28;20097;-57
2021/11/15 11:27:07;;;;;;;16.70;6.10;;;;;;;;;;5053940;28;20074;-55
2021/11/15 11:29:36;;;;;;;19.67;6.78;;;;;;;;;;5063800;28;20118;-57
2021/11/15 11:32:02;;;;;;;;;;;;;;;;;;5063275;28;20044;-56
2021/11/15 11:34:29;;;;;;;16.05;4.70;;;;;;;;;;5060399;28;19999;-57
2021/11/15 11:36:55;;;;;;;18.63;6.82;;;;;;;;;;5041519;28;20037;-56
2021/11/15 11:39:22;;;;;;;21.33;7.03;;;;;;;;;;5060332;28;20048;-57
2021/11/15 11:41:53;;;;;;;19.08;6.07;;;;;;;;;;5056461;28;20040;-56
2021/11/15 11:44:22;;;;;;;18.00;6.40;;;;;;;;;;5048367;28;20032;-56
2021/11/15 11:46:50;;;;;;;16.08;6.25;;;;;;;;;;5026287;28;20045;-57
2021/11/15 11:49:18;;;;;;;16.73;6.07;;;;;;;;;;5024874;28;20045;-56
2021/11/15 11:51:45;;;;;;;;;;;;;;;;;;5019716;28;20056;-53
2021/11/15 11:54:13;;;;;;;20.85;6.32;;;;;;;;;;5023826;28;19931;-55
2021/11/15 11:56:40;;;;;;;18.07;5.80;;;;;;;;;;5026255;28;20127;-55
2021/11/15 11:59:14;;;;;;;18.70;6.30;;;;;;;;;;5044926;28;20139;-55
2021/11/15 12:01:54;;;;;;;18.92;6.97;;;;;;;;;;5065919;28;20299;-56
2021/11/15 12:04:22;;;;;;;21.42;6.95;;;;;;;;;;5039782;28;20041;-57
2021/11/15 12:06:50;;;;;;;18.23;6.50;;;;;;;;;;5039277;28;20048;-56
2021/11/15 12:09:18;;;;;;;19.48;6.50;;;;;;;;;;5077548;28;20025;-56
2021/11/15 12:11:46;;;;;;;17.77;6.57;;;;;;;;;;5056839;28;20052;-57
2021/11/15 12:14:14;;;;;;;20.52;6.88;;;;;;;;;;5043432;28;20129;-56
2021/11/15 12:17:01;;;;;;;17.33;6.93;;;;;;;;;;5041473;28;20049;-58
2021/11/15 12:19:47;;;;;;;21.83;8.27;;;;;;;;;;5053122;28;20051;-55
2021/11/15 12:22:15;;;;;;;21.02;6.72;;;;;;;;;;5055855;28;20036;-58
2021/11/15 12:24:56;;;;;;;17.85;6.45;;;;;;;;;;5054019;28;20052;-56
2021/11/15 12:27:37;;;;;;;18.13;7.45;;;;;;;;;;5059298;28;20049;-58
2021/11/15 12:30:17;;;;;;;24.08;7.50;;;;;;;;;;5057610;28;20109;-56
2021/11/15 12:32:46;;;;;;;22.20;7.70;;;;;;;;;;5041601;28;20049;-56
2021/11/15 12:35:12;;;;;;;18.83;6.72;;;;;;;;;;5045448;28;20047;-56
2021/11/15 12:37:40;;;;;;;20.63;7.28;;;;;;;;;;5059843;28;20106;-57
2021/11/15 12:40:09;;;;;;;18.50;6.60;;;;;;;;;;5047489;28;20033;-57
2021/11/15 12:42:35;;;;;;;17.77;6.78;;;;;;;;;;5057670;28;20037;-55
2021/11/15 12:45:09;;;;;;;17.25;6.13;;;;;;;;;;5063291;28;20048;-57
2021/11/15 12:47:38;;;;;;;19.60;5.75;;;;;;;;;;5058848;28;20040;-57
2021/11/15 12:50:07;;;;;;;17.33;5.97;;;;;;;;;;5058452;28;20073;-54
2021/11/15 12:52:36;;;;;;;13.95;4.72;;;;;;;;;;5021089;28;20034;-57
2021/11/15 12:55:05;;;;;;;15.77;4.53;;;;;;;;;;5072379;28;20065;-57
2021/11/15 12:57:36;;;;;;;17.58;5.40;;;;;;;;;;5075084;28;20037;-55
2021/11/15 13:00:08;;;;;;;13.32;4.72;;;;;;;;;;5049216;28;20048;-55
2021/11/15 13:02:34;;;;;;;15.90;5.00;;;;;;;;;;5061522;28;20033;-55
2021/11/15 13:05:01;;;;;;;15.63;4.88;;;;;;;;;;5072865;28;20049;-57
2021/11/15 13:07:29;;;;;;;14.50;4.97;;;;;;;;;;5061925;28;20097;-54
2021/11/15 13:09:57;;;;;;;17.55;5.40;;;;;;;;;;5057035;28;20058;-56
2021/11/15 13:12:26;;;;;;;12.30;4.90;;;;;;;;;;5042562;28;20045;-55
2021/11/15 13:14:52;;;;;;;;;;;;;;;;;;5041059;28;20069;-57
2021/11/15 13:17:20;;;;;;;13.40;4.55;;;;;;;;;;5042273;28;19998;-58
2021/11/15 13:19:49;;;;;;;17.60;6.18;;;;;;;;;;5045981;28;20061;-57
2021/11/15 13:22:16;;;;;;;14.07;5.05;;;;;;;;;;5037322;28;20056;-56
2021/11/15 13:24:45;;;;;;;13.43;4.93;;;;;;;;;;5024109;28;20090;-57
2021/11/15 13:27:11;;;;;;;15.82;4.60;;;;;;;;;;5043013;28;20057;-57
2021/11/15 13:29:39;;;;;;;17.70;5.28;;;;;;;;;;5043921;28;20170;-57
2021/11/15 13:32:05;;;;;;;14.27;4.30;;;;;;;;;;5062946;28;20077;-57
2021/11/15 13:34:32;;;;;;;15.70;5.68;;;;;;;;;;5043446;28;20045;-56
2021/11/15 13:36:59;;;;;;;13.43;5.03;;;;;;;;;;5034078;28;20041;-56
2021/11/15 13:39:26;;;;;;;18.85;4.90;;;;;;;;;;5030991;28;20047;-57
2021/11/15 13:41:54;;;;;;;15.27;5.43;;;;;;;;;;5020996;28;20053;-57
2021/11/15 13:44:21;;;;;;;15.25;4.78;;;;;;;;;;5028236;28;20073;-57
2021/11/15 13:46:48;;;;;;;18.60;6.05;;;;;;;;;;5024078;28;20041;-56
2021/11/15 13:49:15;;;;;;;11.77;4.68;;;;;;;;;;5022706;28;20062;-52
2021/11/15 13:51:42;;;;;;;19.52;6.18;;;;;;;;;;5034125;28;20052;-58
2021/11/15 13:54:10;;;;;;;15.63;5.15;;;;;;;;;;5042972;28;20057;-57
2021/11/15 13:56:36;;;;;;;15.60;5.35;;;;;;;;;;5027872;28;20050;-54
2021/11/15 13:59:04;;;;;;;18.67;5.03;;;;;;;;;;5025014;28;20042;-58
2021/11/15 14:01:32;;;;;;;20.52;6.65;;;;;;;;;;5030140;28;20049;-58
2021/11/15 14:03:58;;;;;;;19.27;5.05;;;;;;;;;;5042209;28;20038;-59
2021/11/15 14:06:25;;;;;;;18.40;5.70;;;;;;;;;;5039216;28;20052;-59
2021/11/15 14:08:55;;;;;;;16.15;5.65;;;;;;;;;;5042914;28;20040;-57
2021/11/15 14:11:22;;;;;;;15.00;4.95;;;;;;;;;;5037757;28;20139;-55
2021/11/15 14:13:49;;;;;;;16.77;5.50;;;;;;;;;;5028061;28;20073;-55
2021/11/15 14:16:17;;;;;;;17.80;5.68;;;;;;;;;;5019055;28;20056;-56
2021/11/15 14:18:43;;;;;;;14.90;5.30;;;;;;;;;;5022614;28;20052;-57
2021/11/15 14:21:10;;;;;;;13.77;4.68;;;;;;;;;;5019231;28;20127;-56
2021/11/15 14:23:37;;;;;;;19.60;5.80;;;;;;;;;;5020790;28;20055;-57
2021/11/15 14:26:03;;;;;;;14.95;5.28;;;;;;;;;;5045911;28;20052;-54
2021/11/15 14:28:30;;;;;;;17.77;5.38;;;;;;;;;;5060911;28;20199;-58
2021/11/15 14:30:57;;;;;;;20.30;6.28;;;;;;;;;;5079622;28;20040;-57
2021/11/15 14:33:25;;;;;;;15.85;5.38;;;;;;;;;;5075248;28;20133;-58
2021/11/15 14:35:55;;;;;;;18.40;5.88;;;;;;;;;;5078750;28;20045;-56
2021/11/15 14:38:21;;;;;;;16.67;5.47;;;;;;;;;;5073736;28;20182;-58
2021/11/15 14:40:48;;;;;;;22.45;6.53;;;;;;;;;;5078964;28;20047;-58